Time;durP1;ratioP1;P1;durP2;ratioP2;P2;SDS_P1;SDS_P2;PMS_P1;PMS_P2;Temp;Humidity;BMP_temperature;BMP_pressure;BME280_temperature;BME280_humidity;BME280_pressure;Samples;Min_cycle;Max_cycle;Signal;HPM_P1;HPM_P2
2022/08/07 00:01:08;;;;;;;2.33;1.20;;;17.80;85.80;;;;;;4941287;28;20044;-76
2022/08/07 00:03:34;;;;;;;3.15;1.20;;;17.70;85.90;;;;;;4939682;28;20047;-75
2022/08/07 00:06:00;;;;;;;1.92;1.10;;;17.80;86.10;;;;;;4941708;28;20411;-75
2022/08/07 00:08:26;;;;;;;2.00;1.40;;;17.70;86.20;;;;;;4924066;28;20109;-75
2022/08/07 00:10:52;;;;;;;2.30;1.35;;;17.60;86.30;;;;;;4937599;28;20575;-76
2022/08/07 00:13:20;;;;;;;4.05;1.17;;;17.60;86.50;;;;;;4953669;28;20559;-75
2022/08/07 00:15:46;;;;;;;2.17;1.30;;;17.60;86.60;;;;;;4942047;28;20121;-76
2022/08/07 00:18:14;;;;;;;1.92;1.05;;;17.50;86.70;;;;;;4926061;28;20048;-75
2022/08/07 00:20:40;;;;;;;2.85;1.55;;;17.50;86.90;;;;;;4935982;28;20051;-75
2022/08/07 00:23:05;;;;;;;3.72;1.52;;;17.50;87.00;;;;;;4939302;28;20047;-75
2022/08/07 00:25:32;;;;;;;5.75;1.67;;;17.50;87.10;;;;;;4940459;28;20048;-75
2022/08/07 00:27:58;;;;;;;3.03;2.65;;;17.50;87.20;;;;;;4938888;28;20051;-76
2022/08/07 00:30:24;;;;;;;2.75;1.33;;;17.40;87.30;;;;;;4941089;28;20445;-75
2022/08/07 00:32:51;;;;;;;4.65;2.65;;;17.40;87.40;;;;;;4941423;28;20098;-76
2022/08/07 00:35:20;;;;;;;2.08;1.40;;;17.40;87.70;;;;;;4942311;28;20047;-75
2022/08/07 00:37:46;;;;;;;2.03;1.23;;;17.30;87.80;;;;;;4937732;28;20063;-75
2022/08/07 00:40:13;;;;;;;3.65;1.40;;;17.30;88.10;;;;;;4939109;28;20044;-75
2022/08/07 00:42:40;;;;;;;2.63;1.50;;;17.30;88.30;;;;;;4938568;28;20052;-75
2022/08/07 00:45:07;;;;;;;5.43;2.13;;;17.20;88.60;;;;;;4940444;28;20526;-75
2022/08/07 00:47:33;;;;;;;5.85;1.60;;;17.20;88.80;;;;;;4940988;28;20108;-75
2022/08/07 00:50:00;;;;;;;3.92;1.25;;;17.20;89.00;;;;;;4943461;28;20500;-75
2022/08/07 00:52:25;;;;;;;2.63;1.77;;;17.20;89.20;;;;;;4936922;28;20054;-76
2022/08/07 00:54:51;;;;;;;3.22;1.27;;;17.10;89.40;;;;;;4940281;28;20529;-75
2022/08/07 00:57:17;;;;;;;2.97;1.30;;;17.10;89.60;;;;;;4940343;28;20501;-75
2022/08/07 00:59:43;;;;;;;2.50;1.45;;;17.10;89.80;;;;;;4939369;28;20040;-75
2022/08/07 01:02:11;;;;;;;2.33;2.00;;;17.10;89.80;;;;;;4935592;28;20591;-75
2022/08/07 01:04:37;;;;;;;1.73;1.27;;;17.10;89.90;;;;;;4942554;28;21895;-76
2022/08/07 01:07:04;;;;;;;1.27;1.02;;;17.10;89.90;;;;;;4941695;28;20051;-75
2022/08/07 01:09:31;;;;;;;4.03;1.30;;;17.10;90.00;;;;;;4940795;28;20047;-75
2022/08/07 01:11:57;;;;;;;2.45;1.75;;;17.10;90.00;;;;;;4954669;28;20306;-75
2022/08/07 01:14:23;;;;;;;2.33;1.40;;;17.00;90.10;;;;;;4940926;28;20525;-75
2022/08/07 01:16:50;;;;;;;2.50;1.48;;;17.00;90.10;;;;;;4924602;28;20997;-75
2022/08/07 01:19:17;;;;;;;3.25;1.63;;;17.00;90.10;;;;;;4945004;28;20048;-75
2022/08/07 01:21:44;;;;;;;2.95;1.33;;;17.00;90.20;;;;;;4927205;28;20043;-75
2022/08/07 01:24:10;;;;;;;3.92;1.45;;;17.00;90.20;;;;;;4928223;28;20051;-75
2022/08/07 01:26:37;;;;;;;3.08;1.48;;;17.00;90.30;;;;;;4926759;28;20661;-75
2022/08/07 01:29:03;;;;;;;2.83;1.45;;;16.90;90.30;;;;;;4942433;28;20048;-75
2022/08/07 01:31:32;;;;;;;2.45;1.30;;;16.90;90.40;;;;;;4940354;28;20097;-75
2022/08/07 01:33:59;;;;;;;1.30;1.08;;;16.90;90.40;;;;;;4928569;28;20587;-75
2022/08/07 01:36:27;;;;;;;1.35;1.00;;;16.80;90.40;;;;;;4926362;28;20174;-75
2022/08/07 01:38:53;;;;;;;7.65;1.38;;;16.90;90.50;;;;;;4926865;28;20100;-75
2022/08/07 01:41:20;;;;;;;2.53;1.33;;;16.80;90.40;;;;;;4939030;28;20053;-75
2022/08/07 01:43:47;;;;;;;2.17;1.20;;;16.80;90.40;;;;;;4928343;28;20407;-75
2022/08/07 01:46:14;;;;;;;1.92;1.33;;;16.80;90.50;;;;;;4940454;28;20644;-75
2022/08/07 01:48:44;;;;;;;2.33;1.70;;;16.80;90.60;;;;;;4941907;28;20067;-75
2022/08/07 01:51:22;;;;;;;2.58;1.60;;;16.80;90.60;;;;;;4940618;28;20595;-75
2022/08/07 01:53:58;;;;;;;1.88;1.23;;;16.80;90.60;;;;;;4941204;28;20075;-75
2022/08/07 01:56:35;;;;;;;2.58;1.35;;;16.70;90.60;;;;;;4937105;28;20047;-75
2022/08/07 01:59:09;;;;;;;3.85;1.27;;;16.80;90.60;;;;;;4941392;28;20054;-75
2022/08/07 02:01:42;;;;;;;4.47;1.30;;;16.70;90.60;;;;;;4941499;28;20154;-76
2022/08/07 02:04:24;;;;;;;4.15;1.40;;;16.70;90.70;;;;;;4940408;28;20078;-75
2022/08/07 02:06:52;;;;;;;2.38;1.17;;;16.70;90.80;;;;;;4940408;28;20500;-75
2022/08/07 02:09:20;;;;;;;2.58;1.70;;;16.70;90.70;;;;;;4942828;28;20108;-75
2022/08/07 02:11:49;;;;;;;4.38;1.35;;;16.70;90.80;;;;;;4957976;28;20588;-75
2022/08/07 02:14:18;;;;;;;2.13;1.40;;;16.60;90.80;;;;;;4937756;28;20059;-75
2022/08/07 02:16:47;;;;;;;2.97;1.52;;;16.60;90.80;;;;;;4939621;28;20593;-75
2022/08/07 02:19:15;;;;;;;3.05;1.20;;;16.50;90.90;;;;;;4939542;28;20150;-75
2022/08/07 02:21:43;;;;;;;2.90;1.13;;;16.50;90.90;;;;;;4926263;28;20444;-75
2022/08/07 02:24:12;;;;;;;6.40;1.48;;;16.50;91.20;;;;;;4943239;28;20073;-75
2022/08/07 02:26:38;;;;;;;4.43;1.33;;;16.40;91.00;;;;;;4941174;28;20043;-75
2022/08/07 02:29:06;;;;;;;3.65;1.60;;;16.40;91.00;;;;;;4938531;28;20044;-75
2022/08/07 02:31:33;;;;;;;3.30;1.25;;;16.40;91.10;;;;;;4925376;28;20098;-75
2022/08/07 02:34:00;;;;;;;2.97;2.20;;;16.40;91.10;;;;;;4941909;28;20082;-75
2022/08/07 02:36:28;;;;;;;5.13;1.40;;;16.40;91.10;;;;;;4941469;28;20368;-75
2022/08/07 02:38:56;;;;;;;2.40;1.45;;;16.40;91.10;;;;;;4940134;28;20051;-76
2022/08/07 02:41:23;;;;;;;1.30;1.13;;;16.50;91.20;;;;;;4956055;28;20047;-75
2022/08/07 02:43:51;;;;;;;3.05;1.38;;;16.40;91.20;;;;;;4941486;28;20047;-75
2022/08/07 02:46:23;;;;;;;2.83;1.42;;;16.40;91.20;;;;;;4955335;28;20470;-75
2022/08/07 02:48:49;;;;;;;5.43;1.65;;;16.30;91.10;;;;;;4955879;28;20529;-75
2022/08/07 02:51:19;;;;;;;2.60;1.52;;;16.30;91.20;;;;;;4943201;28;20068;-75
2022/08/07 02:53:52;;;;;;;2.45;1.30;;;16.20;91.20;;;;;;4926145;28;20050;-76
2022/08/07 02:56:20;;;;;;;1.88;1.10;;;16.20;91.30;;;;;;4942074;28;20044;-75
2022/08/07 02:58:48;;;;;;;2.58;1.45;;;16.20;91.40;;;;;;4937693;28;20537;-75
2022/08/07 03:01:16;;;;;;;2.97;1.35;;;16.20;91.50;;;;;;4939787;28;20130;-75
2022/08/07 03:03:42;;;;;;;3.83;1.38;;;16.20;91.50;;;;;;4940483;28;20611;-75
2022/08/07 03:06:09;;;;;;;7.63;1.70;;;16.10;91.50;;;;;;4941087;28;20043;-75
2022/08/07 03:08:35;;;;;;;1.58;1.30;;;16.20;91.60;;;;;;4939912;28;20044;-75
2022/08/07 03:11:01;;;;;;;3.50;1.27;;;16.20;91.60;;;;;;4940542;28;20451;-75
2022/08/07 03:13:28;;;;;;;1.88;1.10;;;16.20;91.60;;;;;;4942711;28;20047;-75
2022/08/07 03:15:54;;;;;;;1.40;1.20;;;16.10;91.60;;;;;;4939073;28;20043;-75
2022/08/07 03:18:21;;;;;;;2.75;1.70;;;16.10;91.60;;;;;;4938995;28;20046;-75
2022/08/07 03:20:47;;;;;;;3.30;1.45;;;16.00;91.70;;;;;;4939667;28;20057;-75
2022/08/07 03:23:14;;;;;;;2.63;1.67;;;16.10;91.70;;;;;;4942186;28;20051;-75
2022/08/07 03:25:40;;;;;;;6.07;1.48;;;16.10;91.80;;;;;;4926699;28;20480;-75
2022/08/07 03:28:10;;;;;;;4.20;2.05;;;16.10;91.70;;;;;;4939988;28;20490;-75
2022/08/07 03:30:37;;;;;;;2.15;1.33;;;16.10;91.80;;;;;;4949943;28;20047;-75
2022/08/07 03:33:05;;;;;;;3.08;1.27;;;16.10;91.80;;;;;;4955901;28;20055;-75
2022/08/07 03:35:32;;;;;;;1.52;1.10;;;16.10;91.80;;;;;;4939600;28;20603;-75
2022/08/07 03:38:02;;;;;;;1.73;1.33;;;16.10;91.80;;;;;;4936889;28;20077;-75
2022/08/07 03:40:29;;;;;;;3.33;1.17;;;16.00;91.90;;;;;;4940058;28;20043;-75
2022/08/07 03:42:55;;;;;;;2.40;1.48;;;16.00;91.90;;;;;;4938226;28;20087;-75
2022/08/07 03:45:24;;;;;;;5.55;1.90;;;16.00;91.90;;;;;;4926198;28;20116;-75
2022/08/07 03:47:50;;;;;;;2.40;1.27;;;16.00;92.00;;;;;;4938197;28;20124;-75
2022/08/07 03:50:20;;;;;;;2.35;1.35;;;15.90;92.00;;;;;;4938008;28;20050;-75
2022/08/07 03:52:47;;;;;;;2.40;1.20;;;15.90;92.00;;;;;;4940415;28;20047;-76
2022/08/07 03:55:13;;;;;;;1.67;1.13;;;15.80;92.10;;;;;;4941598;28;20062;-75
2022/08/07 03:57:40;;;;;;;3.90;1.70;;;15.80;92.20;;;;;;4940952;28;20052;-75
2022/08/07 04:00:10;;;;;;;2.50;1.27;;;15.70;92.20;;;;;;4940791;28;20083;-76
2022/08/07 04:02:36;;;;;;;4.68;1.88;;;15.50;92.30;;;;;;4938985;28;20040;-75
2022/08/07 04:05:21;;;;;;;4.68;1.83;;;15.70;92.30;;;;;;4942494;28;20052;-75
2022/08/07 04:08:05;;;;;;;4.18;1.60;;;15.80;92.40;;;;;;4940249;28;20051;-75
2022/08/07 04:10:32;;;;;;;1.95;1.40;;;15.70;92.30;;;;;;4927825;28;20051;-75
2022/08/07 04:13:13;;;;;;;2.65;1.30;;;15.70;92.30;;;;;;4938470;28;20098;-75
2022/08/07 04:15:42;;;;;;;3.35;1.70;;;15.70;92.40;;;;;;4928571;28;20051;-75
2022/08/07 04:18:18;;;;;;;3.20;1.58;;;15.70;92.50;;;;;;4937429;28;20044;-75
2022/08/07 04:20:49;;;;;;;1.77;1.40;;;15.70;92.50;;;;;;4925990;28;20661;-75
2022/08/07 04:23:17;;;;;;;2.83;1.58;;;15.70;92.50;;;;;;4954263;28;20479;-75
2022/08/07 04:25:47;;;;;;;2.53;1.40;;;15.70;92.50;;;;;;4943801;28;20055;-75
2022/08/07 04:28:13;;;;;;;1.90;1.55;;;15.70;92.50;;;;;;4941917;28;20925;-75
2022/08/07 04:30:49;;;;;;;1.63;1.30;;;15.70;92.50;;;;;;4928409;28;20051;-75
2022/08/07 04:33:21;;;;;;;3.15;1.90;;;15.40;92.50;;;;;;4927565;28;20044;-76
2022/08/07 04:35:50;;;;;;;3.45;1.73;;;15.70;92.60;;;;;;4927769;28;20493;-75
2022/08/07 04:38:28;;;;;;;6.28;2.85;;;15.70;92.60;;;;;;4940382;28;20083;-75
2022/08/07 04:40:59;;;;;;;2.13;1.33;;;15.70;92.70;;;;;;4952451;28;20079;-75
2022/08/07 04:43:34;;;;;;;2.70;1.50;;;15.50;92.70;;;;;;4937167;28;20047;-76
2022/08/07 04:46:31;;;;;;;4.13;2.42;;;15.70;92.80;;;;;;5011917;28;20372;-75
2022/08/07 04:49:23;;;;;;;4.28;1.73;;;15.60;92.70;;;;;;4942376;28;20214;-75
2022/08/07 04:52:11;;;;;;;2.25;1.50;;;15.50;92.80;;;;;;4958021;28;20093;-76
2022/08/07 04:54:57;;;;;;;4.03;1.70;;;15.60;92.90;;;;;;4943072;28;20048;-75
2022/08/07 04:57:39;;;;;;;2.60;1.77;;;15.60;92.90;;;;;;4946662;28;20056;-75
2022/08/07 05:00:30;;;;;;;3.40;1.45;;;15.30;92.90;;;;;;4944629;28;20044;-75
2022/08/07 05:03:15;;;;;;;2.47;1.80;;;15.60;92.90;;;;;;4942353;28;20043;-75
2022/08/07 05:05:58;;;;;;;4.45;1.90;;;15.40;93.00;;;;;;4940541;28;20043;-75
2022/08/07 05:08:40;;;;;;;3.47;1.60;;;15.60;93.00;;;;;;4943632;28;20063;-75
2022/08/07 05:11:16;;;;;;;7.00;1.80;;;15.60;93.00;;;;;;4930759;28;20157;-75
2022/08/07 05:14:05;;;;;;;4.03;1.75;;;15.60;93.10;;;;;;4945202;28;20106;-75
2022/08/07 05:19:37;;;;;;;5.25;1.67;;;15.60;93.10;;;;;;4942306;28;20052;-75
2022/08/07 05:22:16;;;;;;;3.08;1.55;;;15.70;93.20;;;;;;4928466;28;20054;-75
2022/08/07 05:24:46;;;;;;;3.55;1.70;;;15.60;93.20;;;;;;4928797;28;20051;-75
2022/08/07 05:27:24;;;;;;;2.22;1.60;;;15.50;93.30;;;;;;4941556;28;20602;-75
2022/08/07 05:29:51;;;;;;;3.72;1.55;;;15.60;93.30;;;;;;4925251;28;20066;-75
2022/08/07 05:32:19;;;;;;;2.72;1.70;;;15.50;93.30;;;;;;4958166;28;20097;-75
2022/08/07 05:34:49;;;;;;;2.53;1.25;;;15.50;93.40;;;;;;4927303;28;20043;-76
2022/08/07 05:37:17;;;;;;;2.50;1.30;;;15.60;93.40;;;;;;4944003;28;20051;-76
2022/08/07 05:39:46;;;;;;;2.92;1.83;;;15.60;93.50;;;;;;4941549;28;20533;-75
2022/08/07 05:42:16;;;;;;;2.30;1.60;;;15.60;93.50;;;;;;4944152;28;20060;-75
2022/08/07 05:44:44;;;;;;;3.50;1.85;;;15.60;93.50;;;;;;4940948;28;20070;-75
2022/08/07 05:47:20;;;;;;;2.53;1.63;;;15.50;93.60;;;;;;4942169;28;20097;-75
2022/08/07 05:49:55;;;;;;;1.73;1.33;;;15.60;93.60;;;;;;4928663;28;20135;-75
2022/08/07 05:52:23;;;;;;;2.47;1.45;;;15.60;93.60;;;;;;4928890;28;20059;-75
2022/08/07 05:54:49;;;;;;;1.73;1.45;;;15.50;93.80;;;;;;4927656;28;20036;-75
2022/08/07 05:57:19;;;;;;;2.88;1.58;;;15.60;93.80;;;;;;4929324;28;20125;-75
2022/08/07 05:59:49;;;;;;;3.28;1.73;;;15.60;93.80;;;;;;4927095;28;20089;-75
2022/08/07 06:02:25;;;;;;;3.22;1.33;;;15.30;93.70;;;;;;4926943;28;20122;-75
2022/08/07 06:04:59;;;;;;;2.65;1.80;;;15.60;93.90;;;;;;4927636;28;20047;-75
2022/08/07 06:07:49;;;;;;;1.80;1.60;;;15.60;93.90;;;;;;4943849;28;20047;-80
2022/08/07 06:10:35;;;;;;;2.50;1.33;;;15.70;93.90;;;;;;4940512;28;20635;-77
2022/08/07 06:13:24;;;;;;;3.65;1.90;;;15.70;93.90;;;;;;4941654;28;20126;-77
2022/08/07 06:16:03;;;;;;;2.40;1.50;;;15.70;94.00;;;;;;4940297;28;20094;-77
2022/08/07 06:18:54;;;;;;;3.33;1.30;;;15.70;94.00;;;;;;4940383;28;20039;-76
2022/08/07 06:22:07;;;;;;;3.70;1.38;;;15.70;94.00;;;;;;4942693;28;20059;-77
2022/08/07 06:24:54;;;;;;;3.42;1.70;;;15.80;94.00;;;;;;4946928;28;20566;-78
2022/08/07 06:27:31;;;;;;;2.05;1.20;;;16.20;94.10;;;;;;4929268;28;20155;-79
2022/08/07 06:30:16;;;;;;;2.55;1.30;;;15.80;94.00;;;;;;4941559;28;20344;-77
2022/08/07 06:33:07;;;;;;;3.05;1.50;;;15.80;94.10;;;;;;4929781;28;20052;-77
2022/08/07 06:36:12;;;;;;;3.08;1.25;;;15.70;94.10;;;;;;4928271;28;20052;-76
2022/08/07 06:38:46;;;;;;;5.20;1.65;;;15.90;94.10;;;;;;4941743;28;20055;-77
2022/08/07 06:41:42;;;;;;;2.90;2.10;;;15.90;94.20;;;;;;4927716;28;20541;-77
2022/08/07 06:44:23;;;;;;;1.83;1.38;;;15.90;94.20;;;;;;4925560;28;20134;-77
2022/08/07 06:47:11;;;;;;;4.07;1.65;;;16.00;94.20;;;;;;4936348;28;20810;-78
2022/08/07 06:49:53;;;;;;;3.53;1.40;;;16.00;94.30;;;;;;4929523;28;20048;-78
2022/08/07 06:52:35;;;;;;;3.25;1.45;;;16.30;94.30;;;;;;4943188;28;20095;-77
2022/08/07 06:55:18;;;;;;;;;;;16.10;94.30;;;;;;4930657;28;20047;-78
2022/08/07 06:58:17;;;;;;;2.15;1.58;;;15.80;94.20;;;;;;4939506;28;20443;-77
2022/08/07 07:01:15;;;;;;;2.40;1.40;;;16.10;94.30;;;;;;4937134;28;20048;-76
2022/08/07 07:03:57;;;;;;;1.65;1.20;;;16.20;94.30;;;;;;4925435;28;20974;-84
2022/08/07 07:06:31;;;;;;;1.48;1.38;;;16.30;94.30;;;;;;4941420;28;20052;-76
2022/08/07 07:09:26;;;;;;;2.95;1.40;;;16.30;94.30;;;;;;4954714;28;20052;-75
2022/08/07 07:12:07;;;;;;;1.27;1.10;;;16.40;94.30;;;;;;4927745;28;20110;-74
2022/08/07 07:15:10;;;;;;;2.73;1.40;;;16.50;94.20;;;;;;4939918;28;20044;-76
2022/08/07 07:18:07;;;;;;;1.30;0.85;;;16.50;94.10;;;;;;4937706;28;20272;-75
2022/08/07 07:20:45;;;;;;;1.90;1.10;;;16.50;94.10;;;;;;4927583;28;20534;-75
2022/08/07 07:23:15;;;;;;;5.53;2.65;;;16.60;94.10;;;;;;4942240;28;20494;-75
2022/08/07 07:25:46;;;;;;;4.13;1.55;;;16.60;94.10;;;;;;4928127;28;20489;-74
2022/08/07 07:28:43;;;;;;;3.22;0.88;;;16.70;94.10;;;;;;4940082;28;20051;-80
2022/08/07 07:31:45;;;;;;;4.85;1.20;;;16.70;93.90;;;;;;4945372;28;20056;-77
2022/08/07 07:34:16;;;;;;;4.07;1.38;;;16.80;93.80;;;;;;4941046;28;20055;-74
2022/08/07 07:36:59;;;;;;;2.40;1.47;;;16.90;93.80;;;;;;4944454;28;20130;-75
2022/08/07 07:39:31;;;;;;;1.13;0.82;;;16.90;93.80;;;;;;4937675;28;20686;-74
2022/08/07 07:42:06;;;;;;;1.73;1.10;;;16.90;93.70;;;;;;4942903;28;20039;-75
2022/08/07 07:44:43;;;;;;;2.53;1.55;;;17.00;93.70;;;;;;4929941;28;20133;-75
2022/08/07 07:47:22;;;;;;;1.70;1.08;;;17.10;93.60;;;;;;4927821;28;20043;-75
2022/08/07 07:49:58;;;;;;;1.23;0.93;;;17.10;93.40;;;;;;4945101;28;20546;-75
2022/08/07 07:52:54;;;;;;;2.58;1.23;;;17.20;93.30;;;;;;4943392;28;20113;-75
2022/08/07 07:55:37;;;;;;;2.80;1.05;;;17.20;93.30;;;;;;4935707;28;20131;-75
2022/08/07 07:58:16;;;;;;;1.80;1.45;;;17.30;93.10;;;;;;4943788;28;20050;-76
2022/08/07 08:01:10;;;;;;;2.40;1.10;;;17.30;93.10;;;;;;4946008;28;20449;-75
2022/08/07 08:03:42;;;;;;;1.50;1.00;;;17.40;92.90;;;;;;4944909;28;20146;-75
2022/08/07 08:06:14;;;;;;;1.85;1.20;;;17.40;93.20;;;;;;4946081;28;20756;-75
2022/08/07 08:08:55;;;;;;;1.65;1.50;;;17.40;92.80;;;;;;4946123;28;20113;-82
2022/08/07 08:11:42;;;;;;;4.22;1.20;;;17.40;92.70;;;;;;4927195;28;20052;-82
2022/08/07 08:14:24;;;;;;;2.28;1.30;;;17.50;92.70;;;;;;4944855;28;21755;-82
2022/08/07 08:16:57;;;;;;;2.20;1.00;;;17.50;92.60;;;;;;4926176;28;21279;-83
2022/08/07 08:19:29;;;;;;;1.13;0.90;;;17.50;92.50;;;;;;4946241;28;20051;-83
2022/08/07 08:28:12;;;;;;;1.63;0.90;;;17.70;92.00;;;;;;4942158;28;20059;-84
2022/08/07 08:31:04;;;;;;;2.15;0.90;;;17.70;91.90;;;;;;4923910;28;20052;-83
2022/08/07 08:33:50;;;;;;;3.15;1.58;;;17.60;91.90;;;;;;4951704;28;20084;-82
2022/08/07 08:36:50;;;;;;;1.33;0.80;;;17.80;91.80;;;;;;4938974;28;20964;-82
2022/08/07 08:39:29;;;;;;;1.73;1.13;;;17.80;91.40;;;;;;4923142;28;20113;-82
2022/08/07 08:42:32;;;;;;;0.73;0.60;;;17.90;91.20;;;;;;4922607;28;20098;-81
2022/08/07 08:45:28;;;;;;;1.70;0.90;;;18.00;91.00;;;;;;4940817;28;20040;-81
2022/08/07 08:48:09;;;;;;;4.25;1.02;;;18.10;90.70;;;;;;4938043;28;20047;-81
2022/08/07 08:50:53;;;;;;;1.15;0.90;;;18.10;90.50;;;;;;4943726;28;20055;-81
2022/08/07 08:53:58;;;;;;;1.88;1.13;;;18.20;90.30;;;;;;4941189;28;20075;-82
2022/08/07 08:56:39;;;;;;;1.60;0.95;;;18.20;90.20;;;;;;4950103;28;20560;-75
2022/08/07 08:59:16;;;;;;;1.85;0.70;;;18.30;90.20;;;;;;4941628;28;20048;-75
2022/08/07 09:02:23;;;;;;;0.70;0.70;;;18.30;89.80;;;;;;4942626;28;20062;-74
2022/08/07 09:05:33;;;;;;;2.63;1.13;;;18.30;89.50;;;;;;4940524;28;20155;-75
2022/08/07 09:08:26;;;;;;;2.95;1.02;;;18.40;89.60;;;;;;4940207;28;20052;-74
2022/08/07 09:10:52;;;;;;;1.40;1.00;;;18.40;89.60;;;;;;4912853;28;20060;-75
2022/08/07 09:13:55;;;;;;;3.20;1.30;;;18.40;89.30;;;;;;4941630;28;20642;-75
2022/08/07 09:16:49;;;;;;;1.67;1.00;;;18.40;89.00;;;;;;4940521;28;20043;-75
2022/08/07 09:19:51;;;;;;;4.93;1.90;;;18.60;89.10;;;;;;4942467;28;20071;-75
2022/08/07 09:22:48;;;;;;;1.05;0.90;;;18.50;88.90;;;;;;4941489;28;20083;-74
2022/08/07 09:25:33;;;;;;;1.48;1.10;;;18.50;89.00;;;;;;4942598;28;20048;-75
2022/08/07 09:28:05;;;;;;;1.67;1.00;;;18.60;88.60;;;;;;4942413;28;20046;-75
2022/08/07 09:30:54;;;;;;;1.17;0.90;;;18.80;88.40;;;;;;4943497;28;20043;-75
2022/08/07 09:33:38;;;;;;;2.90;1.20;;;18.60;88.30;;;;;;4943173;28;20059;-75
2022/08/07 09:36:17;;;;;;;2.42;1.33;;;18.50;87.70;;;;;;4942888;28;20044;-74
2022/08/07 09:39:14;;;;;;;3.53;1.35;;;18.60;87.70;;;;;;4944362;28;20068;-76
2022/08/07 09:42:25;;;;;;;3.92;1.83;;;18.60;87.20;;;;;;4929640;28;20185;-75
2022/08/07 09:45:24;;;;;;;3.67;1.60;;;18.90;87.00;;;;;;5005478;28;20697;-75
2022/08/07 09:48:24;;;;;;;2.75;1.38;;;18.90;86.90;;;;;;4926529;28;20044;-75
2022/08/07 09:51:07;;;;;;;4.25;1.40;;;18.90;87.20;;;;;;4959230;28;20121;-75
2022/08/07 09:53:43;;;;;;;3.10;1.35;;;18.90;87.20;;;;;;4941160;28;20040;-75
2022/08/07 09:57:02;;;;;;;3.97;1.50;;;19.00;87.10;;;;;;4945351;28;20043;-75
2022/08/07 09:59:56;;;;;;;4.05;2.05;;;19.00;87.10;;;;;;4957858;28;20040;-75
2022/08/07 10:02:47;;;;;;;1.95;1.02;;;19.00;86.80;;;;;;4939539;28;20122;-75
2022/08/07 10:05:55;;;;;;;4.18;1.52;;;19.10;86.50;;;;;;4940628;28;20044;-76
2022/08/07 10:08:43;;;;;;;2.90;1.30;;;19.10;86.10;;;;;;4943352;28;20136;-74
2022/08/07 10:11:33;;;;;;;2.33;0.93;;;19.20;86.20;;;;;;4946012;28;20595;-75
2022/08/07 10:14:28;;;;;;;2.38;1.08;;;19.20;86.00;;;;;;4941206;28;20067;-75
2022/08/07 10:17:28;;;;;;;2.72;1.42;;;19.30;85.90;;;;;;4944445;28;20152;-75
2022/08/07 10:23:53;;;;;;;2.65;1.60;;;19.30;85.80;;;;;;4954128;28;20054;-76
2022/08/07 10:26:43;;;;;;;3.60;1.30;;;19.30;85.90;;;;;;4947252;28;20082;-75
2022/08/07 10:29:41;;;;;;;2.58;1.27;;;19.40;85.80;;;;;;4940617;28;20095;-76
2022/08/07 10:32:59;;;;;;;3.63;1.65;;;19.20;85.50;;;;;;4944107;28;20079;-76
2022/08/07 10:35:37;;;;;;;1.67;1.40;;;19.50;85.60;;;;;;4942075;28;20485;-76
2022/08/07 10:41:55;;;;;;;2.33;0.70;;;19.30;85.50;;;;;;4942317;28;20051;-75
2022/08/07 10:44:44;;;;;;;2.33;1.50;;;19.60;85.30;;;;;;4946805;28;20071;-77
2022/08/07 10:47:29;;;;;;;3.15;1.20;;;19.70;85.20;;;;;;4943993;28;20134;-78
2022/08/07 10:50:54;;;;;;;2.85;1.40;;;19.70;84.80;;;;;;4945251;28;20525;-78
2022/08/07 10:53:58;;;;;;;5.40;2.83;;;19.70;84.90;;;;;;4996439;28;20074;-78
2022/08/07 10:57:02;;;;;;;21.83;16.25;;;19.80;84.80;;;;;;4999776;28;20046;-78
2022/08/07 11:00:02;;;;;;;55.53;34.53;;;19.80;85.00;;;;;;4980232;28;20591;-78
2022/08/07 11:03:22;;;;;;;69.55;36.67;;;19.80;85.20;;;;;;5022110;28;20055;-79
2022/08/07 11:06:19;;;;;;;12.27;8.35;;;19.80;85.20;;;;;;4974169;28;20068;-79
2022/08/07 11:09:01;;;;;;;17.88;10.30;;;19.90;85.00;;;;;;4929326;28;20161;-83
2022/08/07 11:11:30;;;;;;;;;;;19.90;84.70;;;;;;4925763;28;20048;-74
2022/08/07 11:14:22;;;;;;;3.00;2.22;;;20.00;84.00;;;;;;4938404;28;19927;-78
2022/08/07 11:17:04;;;;;;;;;;;20.00;83.50;;;;;;4937259;28;21679;-78
2022/08/07 11:19:46;;;;;;;2.58;1.70;;;20.00;83.50;;;;;;4940627;28;19929;-75
2022/08/07 11:22:18;;;;;;;3.75;1.95;;;20.00;83.90;;;;;;4940987;28;20039;-73
2022/08/07 11:24:50;;;;;;;;;;;20.00;84.00;;;;;;4943891;28;20089;-74
2022/08/07 11:27:37;;;;;;;4.43;1.40;;;20.10;83.50;;;;;;4943105;28;20766;-73
2022/08/07 11:30:05;;;;;;;2.08;1.33;;;20.20;83.50;;;;;;4944021;28;20529;-74
2022/08/07 11:32:50;;;;;;;4.72;1.63;;;20.30;82.90;;;;;;4939939;28;20035;-72
2022/08/07 11:35:21;;;;;;;4.47;1.33;;;20.30;82.70;;;;;;4959821;28;20864;-73
2022/08/07 11:38:05;;;;;;;3.10;1.45;;;20.30;82.30;;;;;;4944438;28;20039;-73
2022/08/07 11:41:08;;;;;;;1.20;0.88;;;20.30;82.40;;;;;;4943829;28;20541;-73
2022/08/07 11:43:47;;;;;;;5.72;1.67;;;20.30;82.30;;;;;;4943793;28;20525;-73
2022/08/07 11:46:19;;;;;;;2.33;1.20;;;20.30;82.20;;;;;;4928647;28;20048;-73
2022/08/07 11:49:21;;;;;;;2.13;1.77;;;20.30;82.50;;;;;;4943918;28;20541;-73
2022/08/07 11:52:08;;;;;;;1.80;1.17;;;20.50;82.20;;;;;;4943430;28;20113;-72
2022/08/07 11:55:06;;;;;;;2.05;1.13;;;20.50;82.30;;;;;;4957283;28;20051;-73
2022/08/07 11:57:41;;;;;;;1.85;1.50;;;20.50;81.80;;;;;;4929637;28;20063;-73
2022/08/07 12:00:38;;;;;;;1.73;1.10;;;20.50;81.40;;;;;;4943903;28;20511;-73
2022/08/07 12:03:16;;;;;;;3.03;1.02;;;20.50;80.90;;;;;;4947814;28;20110;-73
2022/08/07 12:06:16;;;;;;;3.28;1.27;;;20.60;80.70;;;;;;4944440;28;20044;-72
2022/08/07 12:09:00;;;;;;;1.42;1.25;;;20.60;81.20;;;;;;4944968;28;20929;-74
2022/08/07 12:11:34;;;;;;;3.50;1.08;;;20.60;81.00;;;;;;4943451;28;20047;-73
2022/08/07 12:14:15;;;;;;;2.00;1.20;;;20.70;80.00;;;;;;4927864;28;20091;-73
2022/08/07 12:16:46;;;;;;;3.42;1.23;;;20.70;79.80;;;;;;4928304;28;20161;-73
2022/08/07 12:19:43;;;;;;;1.40;0.77;;;20.70;79.90;;;;;;4942887;28;20522;-73
2022/08/07 12:22:16;;;;;;;2.22;1.35;;;20.80;79.30;;;;;;4941629;28;20151;-73
2022/08/07 12:27:47;;;;;;;1.92;1.20;;;20.90;79.20;;;;;;4944339;28;20711;-73
2022/08/07 12:30:13;;;;;;;2.22;1.20;;;20.80;79.40;;;;;;4929698;28;20055;-73
2022/08/07 12:32:46;;;;;;;2.80;1.60;;;20.80;79.70;;;;;;4942655;28;20079;-73
2022/08/07 12:35:14;;;;;;;1.73;1.38;;;20.90;79.60;;;;;;4942276;28;20215;-74
2022/08/07 12:37:42;;;;;;;4.90;1.30;;;21.00;79.40;;;;;;4928137;28;20044;-73
2022/08/07 12:40:10;;;;;;;4.32;1.30;;;21.00;79.40;;;;;;4941627;28;20051;-73
2022/08/07 12:42:40;;;;;;;1.60;1.08;;;21.10;79.60;;;;;;4942209;28;20051;-78
2022/08/07 12:45:18;;;;;;;1.38;1.20;;;21.10;79.80;;;;;;4940382;28;20050;-73
2022/08/07 12:48:05;;;;;;;2.80;1.48;;;21.10;79.70;;;;;;4945531;28;20139;-75
2022/08/07 12:50:44;;;;;;;1.58;1.35;;;21.10;79.00;;;;;;4944551;28;21919;-75
2022/08/07 12:53:16;;;;;;;1.83;1.08;;;21.10;79.00;;;;;;4957349;28;20554;-76
2022/08/07 12:55:45;;;;;;;;;;;21.20;79.00;;;;;;4942534;28;20529;-76
2022/08/07 12:58:16;;;;;;;1.60;1.10;;;21.30;78.60;;;;;;4938292;28;20008;-75
2022/08/07 13:00:47;;;;;;;3.83;1.63;;;21.30;78.20;;;;;;4939983;28;20569;-75
2022/08/07 13:03:41;;;;;;;1.98;1.38;;;21.30;78.30;;;;;;4935063;28;20127;-75
2022/08/07 13:06:16;;;;;;;4.60;1.30;;;21.30;78.50;;;;;;4944964;28;20044;-76
2022/08/07 13:09:17;;;;;;;3.13;1.48;;;21.30;78.60;;;;;;4942555;28;20039;-75
2022/08/07 13:12:03;;;;;;;3.42;1.33;;;21.40;78.50;;;;;;4944296;28;20048;-76
2022/08/07 13:14:41;;;;;;;2.88;1.20;;;21.50;78.20;;;;;;4946324;28;20079;-75
2022/08/07 13:21:23;;;;;;;4.85;1.10;;;21.50;77.90;;;;;;4936464;28;20052;-76
2022/08/07 13:27:50;;;;;;;2.78;1.13;;;21.60;77.50;;;;;;4946069;28;20106;-76
2022/08/07 13:30:43;;;;;;;;;;;;;;;;;;;;;
2022/08/07 13:43:53;;;;;;;;;;;;;;;;;;;;;
2022/08/07 13:57:33;;;;;;;2.10;1.00;;;21.80;76.50;;;;;;4978554;28;20130;-80
2022/08/07 14:00:50;;;;;;;;;;;;;;;;;;;;;
2022/08/07 14:04:13;;;;;;;;;;;;;;;;;;;;;
2022/08/07 14:25:17;;;;;;;1.85;1.10;;;22.40;75.40;;;;;;4878814;29;20110;-81
2022/08/07 14:38:37;;;;;;;1.35;1.02;;;22.40;74.90;;;;;;4890804;29;20064;-79
2022/08/07 14:41:11;;;;;;;2.80;1.00;;;22.40;74.60;;;;;;4842024;28;20532;-78
2022/08/07 14:43:42;;;;;;;2.15;1.40;;;22.40;74.50;;;;;;4931018;28;20052;-77
2022/08/07 14:46:31;;;;;;;1.10;0.90;;;22.50;74.40;;;;;;4928163;28;20106;-78
2022/08/07 14:49:27;;;;;;;1.20;0.98;;;22.50;74.30;;;;;;4918125;28;20055;-78
2022/08/07 14:52:17;;;;;;;4.57;1.48;;;22.50;74.30;;;;;;4919466;28;20147;-78
2022/08/07 14:55:13;;;;;;;1.50;1.00;;;22.60;74.10;;;;;;4917676;28;20170;-79
2022/08/07 14:57:49;;;;;;;1.50;0.88;;;22.50;74.20;;;;;;4941227;28;20160;-78
2022/08/07 15:00:18;;;;;;;1.73;1.10;;;22.60;73.30;;;;;;4941857;28;20047;-77
2022/08/07 15:03:02;;;;;;;1.08;0.80;;;22.60;73.30;;;;;;4925328;28;20070;-78
2022/08/07 15:05:34;;;;;;;2.42;1.23;;;22.60;73.30;;;;;;4960781;28;20975;-78
2022/08/07 15:08:18;;;;;;;1.95;0.98;;;22.60;73.70;;;;;;4937042;28;20048;-80
2022/08/07 15:10:44;;;;;;;2.95;1.48;;;22.70;73.90;;;;;;4936936;28;20075;-76